Aeroporto :
LOGIN :

Iscrizione | Disclaimer

   EN    FR    IT 

 










Sommario :    VFR   VFR Marginale   IFR   IFR Intensivo   IFR Molto Intensivo
Visibilità : 
Base nubi : 
>= 8 km
>= 3000ft
5 / 8 km
1000 / 3000 ft
1500m / 5 km
500 / 1000 ft
800 / 1500m
200 / 500 ft
< 800m
< 200 ft
Simboli :   Temporali  Nebbia  Neve Forte  Precipitazioni Forti  Vento > 20 kt
SIGMETs :   Varie  Temporali  Ghiacco  Turbolenza  Onda orograficha  Ceneri Vulcaniche






- Altitudine del aeroporto : 148 ft
- Codice IATA : ALL


LIMG - Villanova D'Albenga International

ULTIMO METAR :
  • 240850Z 10006KT 070V130 CAVOK 16/M01 Q1006

METARs OBSOLETI :
  • 240750Z VRB02KT CAVOK 13/04 Q1006
  • 240650Z VRB02KT CAVOK 09/04 Q1006
  • 240558Z 23003KT 180V280 CAVOK 07/04 Q1006

TAF TAF LIMG
Valido dal 24 a 07 ore il 25 a 06 ore UTC


240646Z 2407/2506 VRB05KT CAVOK
BECMG 2410/2412 21012KT



MetMap, La meteo Aeronautica in un colpo d'occhio ! - Copyright ORBIFLY Dicembre 2007 - Disclaimer

ORBIFLY MET'MAP TEAM :

Programmazione e sviluppo : Alexandra Zaïnal
Concezione : Baudouin d'Aumeries
Supporto tecnico e logistico : Manuel Goepfert
Aiuto : Marc-Olivier Méhu
Aiuto per la traduzione : Arnaldo La Scala




FONTI E CREDITI :

   NOAA